CYBGCYBQ

Guest
Details From CYBG - BAGOTVILLE
To CYBQ - Tadoule Lake
Flight Number -
Tags decoded
Created
Modified
Stats Distance 1,270 nm / 2,352 km
Max Altitude 0 ft / 0 m
Waypoints 4
Social Downloads 0
Likes 0
Share VATSIM

Download

Looking for another format? Having issues loading an existing format? Contact us
Advertisement - Login to hide

Notes

Requested: CYBG VBS KAROT CYBQ

Route

CYBG VBS KAROT CYBQ

ID Type Via Altitude Latitude Longitude Leg Dist Tot Dist Heading (true) Name
O CYBG APT - 0 ft / 0 m 48.33118˚ -70.99417˚ - 0 nm - BAGOTVILLE
VBS VOR - 0 ft / 0 m 48.01722˚ -71.26667˚ 21 nm 21 nm 210° / 210° SAGUENAY VOR-DME
KAROT FIX - 0 ft / 0 m 47.11142˚ -71.27892˚ 54 nm 76 nm 181° / 181° -
O CYBQ APT - 0 ft / 0 m 58.70627˚ -98.51285˚ 1193 nm 1270 nm 316° / 294° Tadoule Lake

Altitude Profile

Advertisement - Login to hide

Weather


0- 5 10 15 20 25 30 35+ Temperature / ° C

Clouds and Precipitation
Forecast for 2017-12-15 06:00 UTC. Updated 2 hours ago

Ground ~20,000 ft ~40,000 ft Winds

CYBG

Details ICAO CYBG (YBG)
Name BAGOTVILLE
Region Canada
Timezone America/Montreal (UTC-5.0)
Stats Elevation 522 ft / 159 m (AMSL)
Location 48.331181° -70.994165°
Runways 2
Magnetic Variation 16.557° W

METAR

CYBG 150200Z 26018G25KT 3SM -SHSN BLSN OVC030 M15/M18 A2955 RMK SC8 SLP023

Decode

TAF

TAF TAF AMD CYBG 150003Z 1500/1524 27015G25KT 2SM -SHSN BLSN OVC040 TEMPO 1500/1504 6SM BLSN FM150400 27015G25KT P6SM BKN040 TEMPO 1504/1506 4SM BLSN FM151800 27010KT P6SM SCT040 RMK NXT FCST BY 150600Z

Decode

Departure Runways

ID Width Length Bearing (true) Bearing (mag) Surface Threshold Offset Overrun Length
11 150 ft / 46 m 9,907 ft / 3,020 m 90.57° 107.13° Concrete 0 ft / 0 m 0 ft / 0 m
18 150 ft / 46 m 5,923 ft / 1,805 m 163.46° 180.02° Asphalt 0 ft / 0 m 0 ft / 0 m
29 150 ft / 46 m 9,907 ft / 3,020 m 270.60° 287.16° Concrete 0 ft / 0 m 0 ft / 0 m
36 150 ft / 46 m 5,923 ft / 1,805 m 343.46° 0.02° Asphalt 0 ft / 0 m 0 ft / 0 m

CYBQ

Details ICAO CYBQ (XTL)
Name Tadoule Lake
Region Canada
Timezone America/Winnipeg (UTC-6.0)
Stats Elevation 902 ft / 275 m (AMSL)
Location 58.706269° -98.512850°
Runways 1
Magnetic Variation 2.989° E

METAR

CYBQ 150212Z AUTO 28004KT 6SM HZ OVC005 M27/M30 A2997 RMK SLP191

Decode

TAF

Not found

Destination Runways

ID Width Length Bearing (true) Bearing (mag) Surface Threshold Offset Overrun Length
07 164 ft / 50 m 3,971 ft / 1,210 m 72.58° 69.59° Dirt 0 ft / 0 m 0 ft / 0 m
25 164 ft / 50 m 3,971 ft / 1,210 m 252.60° 249.61° Dirt 0 ft / 0 m 0 ft / 0 m

Popular Alternatives